sensor_id;sensor_type;location;lat;lon;timestamp;P1;durP1;ratioP1;P2;durP2;ratioP2
20229;SDS011;12195;55.790;37.572;2023-02-20T00:00:17;28.02;;;14.75;;
20229;SDS011;12195;55.790;37.572;2023-02-20T00:02:53;30.27;;;16.27;;
20229;SDS011;12195;55.790;37.572;2023-02-20T00:05:25;28.10;;;15.08;;
20229;SDS011;12195;55.790;37.572;2023-02-20T00:07:57;29.25;;;15.35;;
20229;SDS011;12195;55.790;37.572;2023-02-20T00:10:29;30.82;;;16.15;;
20229;SDS011;12195;55.790;37.572;2023-02-20T00:13:01;26.52;;;14.75;;
20229;SDS011;12195;55.790;37.572;2023-02-20T00:15:34;29.55;;;15.05;;
20229;SDS011;12195;55.790;37.572;2023-02-20T00:18:06;31.60;;;15.68;;
20229;SDS011;12195;55.790;37.572;2023-02-20T00:20:38;30.08;;;15.72;;
20229;SDS011;12195;55.790;37.572;2023-02-20T00:23:10;27.95;;;14.95;;
20229;SDS011;12195;55.790;37.572;2023-02-20T00:25:42;28.45;;;13.75;;
20229;SDS011;12195;55.790;37.572;2023-02-20T00:28:14;28.60;;;15.15;;
20229;SDS011;12195;55.790;37.572;2023-02-20T00:30:46;25.90;;;13.55;;
20229;SDS011;12195;55.790;37.572;2023-02-20T00:33:18;29.70;;;13.85;;
20229;SDS011;12195;55.790;37.572;2023-02-20T00:35:50;30.50;;;15.10;;
20229;SDS011;12195;55.790;37.572;2023-02-20T00:38:22;28.38;;;14.90;;
20229;SDS011;12195;55.790;37.572;2023-02-20T00:40:55;25.27;;;13.83;;
20229;SDS011;12195;55.790;37.572;2023-02-20T00:43:27;23.40;;;12.82;;
20229;SDS011;12195;55.790;37.572;2023-02-20T00:46:02;27.10;;;13.20;;
20229;SDS011;12195;55.790;37.572;2023-02-20T00:48:34;24.30;;;13.40;;
20229;SDS011;12195;55.790;37.572;2023-02-20T00:51:11;23.77;;;13.38;;
20229;SDS011;12195;55.790;37.572;2023-02-20T00:53:43;27.50;;;14.40;;
20229;SDS011;12195;55.790;37.572;2023-02-20T00:56:15;24.90;;;13.28;;
20229;SDS011;12195;55.790;37.572;2023-02-20T00:58:47;25.02;;;12.25;;
20229;SDS011;12195;55.790;37.572;2023-02-20T01:01:19;25.35;;;12.65;;
20229;SDS011;12195;55.790;37.572;2023-02-20T01:03:51;25.00;;;12.68;;
20229;SDS011;12195;55.790;37.572;2023-02-20T01:06:23;25.80;;;12.90;;
20229;SDS011;12195;55.790;37.572;2023-02-20T01:08:55;22.82;;;13.22;;
20229;SDS011;12195;55.790;37.572;2023-02-20T01:11:27;24.18;;;12.00;;
20229;SDS011;12195;55.790;37.572;2023-02-20T01:14:00;24.77;;;13.10;;
20229;SDS011;12195;55.790;37.572;2023-02-20T01:16:32;20.60;;;12.23;;
20229;SDS011;12195;55.790;37.572;2023-02-20T01:19:04;23.05;;;12.13;;
20229;SDS011;12195;55.790;37.572;2023-02-20T01:21:36;25.05;;;13.43;;
20229;SDS011;12195;55.790;37.572;2023-02-20T01:24:08;25.12;;;12.93;;
20229;SDS011;12195;55.790;37.572;2023-02-20T01:26:41;22.27;;;12.43;;
20229;SDS011;12195;55.790;37.572;2023-02-20T01:29:15;27.80;;;13.18;;
20229;SDS011;12195;55.790;37.572;2023-02-20T01:31:51;24.73;;;13.37;;
20229;SDS011;12195;55.790;37.572;2023-02-20T01:34:23;25.27;;;12.98;;
20229;SDS011;12195;55.790;37.572;2023-02-20T01:36:57;22.95;;;12.53;;
20229;SDS011;12195;55.790;37.572;2023-02-20T01:39:29;24.98;;;12.95;;
20229;SDS011;12195;55.790;37.572;2023-02-20T01:42:02;21.68;;;12.10;;
20229;SDS011;12195;55.790;37.572;2023-02-20T01:44:36;25.95;;;12.18;;
20229;SDS011;12195;55.790;37.572;2023-02-20T01:47:14;20.85;;;12.03;;
20229;SDS011;12195;55.790;37.572;2023-02-20T01:52:23;23.25;;;11.38;;
20229;SDS011;12195;55.790;37.572;2023-02-20T01:55:03;24.10;;;12.13;;
20229;SDS011;12195;55.790;37.572;2023-02-20T01:57:47;22.10;;;9.53;;
20229;SDS011;12195;55.790;37.572;2023-02-20T02:00:21;22.50;;;11.85;;
20229;SDS011;12195;55.790;37.572;2023-02-20T02:03:01;21.20;;;11.68;;
20229;SDS011;12195;55.790;37.572;2023-02-20T02:05:41;28.65;;;11.75;;
20229;SDS011;12195;55.790;37.572;2023-02-20T02:08:15;25.50;;;12.10;;
20229;SDS011;12195;55.790;37.572;2023-02-20T02:10:53;23.20;;;11.95;;
20229;SDS011;12195;55.790;37.572;2023-02-20T02:13:35;24.85;;;13.13;;
20229;SDS011;12195;55.790;37.572;2023-02-20T02:16:13;23.55;;;12.18;;
20229;SDS011;12195;55.790;37.572;2023-02-20T02:34:31;36.30;;;13.58;;
20229;SDS011;12195;55.790;37.572;2023-02-20T02:37:26;30.27;;;13.40;;
20229;SDS011;12195;55.790;37.572;2023-02-20T02:40:23;26.02;;;12.78;;
20229;SDS011;12195;55.790;37.572;2023-02-20T02:48:27;32.17;;;12.90;;
20229;SDS011;12195;55.790;37.572;2023-02-20T02:51:24;29.72;;;12.73;;
20229;SDS011;12195;55.790;37.572;2023-02-20T02:56:49;27.40;;;12.35;;
20229;SDS011;12195;55.790;37.572;2023-02-20T02:59:26;23.57;;;12.28;;
20229;SDS011;12195;55.790;37.572;2023-02-20T03:02:00;33.83;;;12.23;;
20229;SDS011;12195;55.790;37.572;2023-02-20T03:04:34;30.97;;;12.68;;
20229;SDS011;12195;55.790;37.572;2023-02-20T03:07:08;51.33;;;16.97;;
20229;SDS011;12195;55.790;37.572;2023-02-20T03:09:44;38.35;;;13.22;;
20229;SDS011;12195;55.790;37.572;2023-02-20T03:12:17;35.48;;;12.53;;
20229;SDS011;12195;55.790;37.572;2023-02-20T03:15:10;28.07;;;12.70;;
20229;SDS011;12195;55.790;37.572;2023-02-20T03:18:08;26.05;;;12.20;;
20229;SDS011;12195;55.790;37.572;2023-02-20T03:20:58;31.82;;;11.88;;
20229;SDS011;12195;55.790;37.572;2023-02-20T03:23:36;45.90;;;12.23;;
20229;SDS011;12195;55.790;37.572;2023-02-20T03:26:13;26.93;;;11.90;;
20229;SDS011;12195;55.790;37.572;2023-02-20T03:29:00;30.15;;;11.55;;
20229;SDS011;12195;55.790;37.572;2023-02-20T03:31:34;33.08;;;12.98;;
20229;SDS011;12195;55.790;37.572;2023-02-20T03:34:10;30.25;;;12.73;;
20229;SDS011;12195;55.790;37.572;2023-02-20T03:37:04;21.23;;;10.90;;
20229;SDS011;12195;55.790;37.572;2023-02-20T03:39:55;22.37;;;10.80;;
20229;SDS011;12195;55.790;37.572;2023-02-20T03:42:47;25.95;;;11.45;;
20229;SDS011;12195;55.790;37.572;2023-02-20T03:45:40;24.98;;;11.48;;
20229;SDS011;12195;55.790;37.572;2023-02-20T03:48:41;27.27;;;12.40;;
20229;SDS011;12195;55.790;37.572;2023-02-20T03:50:51;27.10;;;11.22;;
20229;SDS011;12195;55.790;37.572;2023-02-20T03:53:24;27.48;;;10.65;;
20229;SDS011;12195;55.790;37.572;2023-02-20T03:55:59;23.40;;;10.78;;
20229;SDS011;12195;55.790;37.572;2023-02-20T03:58:35;26.70;;;11.08;;
20229;SDS011;12195;55.790;37.572;2023-02-20T04:01:09;21.25;;;11.75;;
20229;SDS011;12195;55.790;37.572;2023-02-20T04:03:45;28.05;;;11.78;;
20229;SDS011;12195;55.790;37.572;2023-02-20T04:06:20;26.82;;;11.60;;
20229;SDS011;12195;55.790;37.572;2023-02-20T04:09:03;34.58;;;10.53;;
20229;SDS011;12195;55.790;37.572;2023-02-20T04:11:58;27.98;;;11.03;;
20229;SDS011;12195;55.790;37.572;2023-02-20T04:14:29;24.55;;;11.55;;
20229;SDS011;12195;55.790;37.572;2023-02-20T04:17:05;23.95;;;10.63;;
20229;SDS011;12195;55.790;37.572;2023-02-20T04:19:39;22.67;;;11.45;;
20229;SDS011;12195;55.790;37.572;2023-02-20T04:22:12;27.15;;;12.33;;
20229;SDS011;12195;55.790;37.572;2023-02-20T04:24:47;28.75;;;12.00;;
20229;SDS011;12195;55.790;37.572;2023-02-20T04:27:22;26.30;;;11.63;;
20229;SDS011;12195;55.790;37.572;2023-02-20T04:29:56;30.50;;;12.82;;
20229;SDS011;12195;55.790;37.572;2023-02-20T04:32:30;20.92;;;11.00;;
20229;SDS011;12195;55.790;37.572;2023-02-20T04:35:03;28.67;;;12.43;;
20229;SDS011;12195;55.790;37.572;2023-02-20T04:37:37;24.37;;;11.48;;
20229;SDS011;12195;55.790;37.572;2023-02-20T04:40:11;26.10;;;11.05;;
20229;SDS011;12195;55.790;37.572;2023-02-20T04:42:44;32.00;;;12.60;;
20229;SDS011;12195;55.790;37.572;2023-02-20T04:45:18;31.52;;;12.23;;
20229;SDS011;12195;55.790;37.572;2023-02-20T04:47:51;25.92;;;12.63;;
20229;SDS011;12195;55.790;37.572;2023-02-20T04:50:27;25.35;;;11.68;;
20229;SDS011;12195;55.790;37.572;2023-02-20T04:53:03;24.65;;;11.05;;
20229;SDS011;12195;55.790;37.572;2023-02-20T04:55:36;30.33;;;13.67;;
20229;SDS011;12195;55.790;37.572;2023-02-20T04:58:11;23.20;;;10.95;;
20229;SDS011;12195;55.790;37.572;2023-02-20T05:00:48;18.57;;;9.80;;
20229;SDS011;12195;55.790;37.572;2023-02-20T05:03:21;19.20;;;10.32;;
20229;SDS011;12195;55.790;37.572;2023-02-20T05:05:54;25.52;;;10.82;;
20229;SDS011;12195;55.790;37.572;2023-02-20T05:08:26;21.10;;;8.80;;
20229;SDS011;12195;55.790;37.572;2023-02-20T05:11:02;19.32;;;10.08;;
20229;SDS011;12195;55.790;37.572;2023-02-20T05:13:34;22.87;;;9.35;;
20229;SDS011;12195;55.790;37.572;2023-02-20T05:16:07;16.65;;;9.50;;
20229;SDS011;12195;55.790;37.572;2023-02-20T05:21:13;31.10;;;10.98;;
20229;SDS011;12195;55.790;37.572;2023-02-20T05:24:03;29.80;;;13.53;;
20229;SDS011;12195;55.790;37.572;2023-02-20T05:26:38;21.52;;;11.33;;
20229;SDS011;12195;55.790;37.572;2023-02-20T05:29:10;21.55;;;10.32;;
20229;SDS011;12195;55.790;37.572;2023-02-20T05:31:42;26.93;;;10.90;;
20229;SDS011;12195;55.790;37.572;2023-02-20T05:34:15;23.00;;;10.98;;
20229;SDS011;12195;55.790;37.572;2023-02-20T05:39:20;25.85;;;11.05;;
20229;SDS011;12195;55.790;37.572;2023-02-20T05:41:53;20.32;;;9.28;;
20229;SDS011;12195;55.790;37.572;2023-02-20T05:44:26;24.77;;;11.00;;
20229;SDS011;12195;55.790;37.572;2023-02-20T05:46:58;22.95;;;10.15;;
20229;SDS011;12195;55.790;37.572;2023-02-20T05:49:31;25.25;;;10.08;;
20229;SDS011;12195;55.790;37.572;2023-02-20T05:52:05;21.27;;;10.10;;
20229;SDS011;12195;55.790;37.572;2023-02-20T05:54:39;21.10;;;10.20;;
20229;SDS011;12195;55.790;37.572;2023-02-20T05:57:13;18.20;;;9.65;;
20229;SDS011;12195;55.790;37.572;2023-02-20T05:59:45;18.60;;;9.93;;
20229;SDS011;12195;55.790;37.572;2023-02-20T06:02:17;25.68;;;11.10;;
20229;SDS011;12195;55.790;37.572;2023-02-20T06:04:50;24.15;;;11.95;;
20229;SDS011;12195;55.790;37.572;2023-02-20T06:07:23;18.48;;;9.55;;
20229;SDS011;12195;55.790;37.572;2023-02-20T06:09:55;19.23;;;10.48;;
20229;SDS011;12195;55.790;37.572;2023-02-20T06:12:29;20.88;;;9.78;;
20229;SDS011;12195;55.790;37.572;2023-02-20T06:15:02;19.95;;;9.98;;
20229;SDS011;12195;55.790;37.572;2023-02-20T06:17:34;30.10;;;10.70;;
20229;SDS011;12195;55.790;37.572;2023-02-20T06:20:07;24.02;;;10.58;;
20229;SDS011;12195;55.790;37.572;2023-02-20T06:22:41;18.12;;;8.98;;
20229;SDS011;12195;55.790;37.572;2023-02-20T06:25:13;25.50;;;11.08;;
20229;SDS011;12195;55.790;37.572;2023-02-20T06:27:45;19.17;;;10.00;;
20229;SDS011;12195;55.790;37.572;2023-02-20T06:30:18;19.25;;;9.38;;
20229;SDS011;12195;55.790;37.572;2023-02-20T06:32:51;21.93;;;10.78;;
20229;SDS011;12195;55.790;37.572;2023-02-20T06:35:24;22.20;;;9.80;;
20229;SDS011;12195;55.790;37.572;2023-02-20T06:37:57;20.30;;;10.30;;
20229;SDS011;12195;55.790;37.572;2023-02-20T06:40:31;25.95;;;10.45;;
20229;SDS011;12195;55.790;37.572;2023-02-20T06:43:03;15.63;;;9.20;;
20229;SDS011;12195;55.790;37.572;2023-02-20T06:45:35;19.02;;;9.80;;
20229;SDS011;12195;55.790;37.572;2023-02-20T06:48:07;20.23;;;10.35;;
20229;SDS011;12195;55.790;37.572;2023-02-20T06:50:40;21.93;;;10.53;;
20229;SDS011;12195;55.790;37.572;2023-02-20T06:53:14;35.25;;;16.32;;
20229;SDS011;12195;55.790;37.572;2023-02-20T06:55:46;18.73;;;9.00;;
20229;SDS011;12195;55.790;37.572;2023-02-20T06:58:18;27.70;;;12.28;;
20229;SDS011;12195;55.790;37.572;2023-02-20T07:00:50;22.27;;;11.08;;
20229;SDS011;12195;55.790;37.572;2023-02-20T07:03:23;17.35;;;8.88;;
20229;SDS011;12195;55.790;37.572;2023-02-20T07:05:55;22.15;;;10.28;;
20229;SDS011;12195;55.790;37.572;2023-02-20T07:08:28;24.57;;;10.93;;
20229;SDS011;12195;55.790;37.572;2023-02-20T07:11:00;27.13;;;9.78;;
20229;SDS011;12195;55.790;37.572;2023-02-20T07:13:32;18.95;;;9.85;;
20229;SDS011;12195;55.790;37.572;2023-02-20T07:16:05;18.87;;;9.43;;
20229;SDS011;12195;55.790;37.572;2023-02-20T07:18:37;22.27;;;9.40;;
20229;SDS011;12195;55.790;37.572;2023-02-20T07:21:09;19.85;;;9.95;;
20229;SDS011;12195;55.790;37.572;2023-02-20T07:23:45;19.37;;;10.73;;
20229;SDS011;12195;55.790;37.572;2023-02-20T07:26:18;20.10;;;10.15;;
20229;SDS011;12195;55.790;37.572;2023-02-20T07:28:52;18.55;;;9.75;;
20229;SDS011;12195;55.790;37.572;2023-02-20T07:31:27;16.05;;;7.72;;
20229;SDS011;12195;55.790;37.572;2023-02-20T07:34:00;23.10;;;9.83;;
20229;SDS011;12195;55.790;37.572;2023-02-20T07:36:34;17.57;;;10.10;;
20229;SDS011;12195;55.790;37.572;2023-02-20T07:39:07;22.75;;;9.93;;
20229;SDS011;12195;55.790;37.572;2023-02-20T07:41:40;21.35;;;9.38;;
20229;SDS011;12195;55.790;37.572;2023-02-20T07:44:23;19.40;;;8.75;;
20229;SDS011;12195;55.790;37.572;2023-02-20T07:46:56;32.50;;;11.08;;
20229;SDS011;12195;55.790;37.572;2023-02-20T07:49:28;23.22;;;9.20;;
20229;SDS011;12195;55.790;37.572;2023-02-20T07:52:00;24.45;;;8.85;;
20229;SDS011;12195;55.790;37.572;2023-02-20T07:54:33;34.38;;;9.75;;
20229;SDS011;12195;55.790;37.572;2023-02-20T07:57:05;21.57;;;9.43;;
20229;SDS011;12195;55.790;37.572;2023-02-20T07:59:37;20.37;;;9.58;;
20229;SDS011;12195;55.790;37.572;2023-02-20T08:02:09;15.08;;;9.08;;
20229;SDS011;12195;55.790;37.572;2023-02-20T08:04:42;25.15;;;10.70;;
20229;SDS011;12195;55.790;37.572;2023-02-20T08:07:14;20.25;;;9.05;;
20229;SDS011;12195;55.790;37.572;2023-02-20T08:09:47;20.68;;;8.78;;
20229;SDS011;12195;55.790;37.572;2023-02-20T08:12:19;22.22;;;9.30;;
20229;SDS011;12195;55.790;37.572;2023-02-20T08:14:52;23.35;;;9.15;;
20229;SDS011;12195;55.790;37.572;2023-02-20T08:17:24;25.70;;;9.85;;
20229;SDS011;12195;55.790;37.572;2023-02-20T08:19:58;18.17;;;9.25;;
20229;SDS011;12195;55.790;37.572;2023-02-20T08:22:30;16.10;;;9.03;;
20229;SDS011;12195;55.790;37.572;2023-02-20T08:25:04;19.95;;;10.13;;
20229;SDS011;12195;55.790;37.572;2023-02-20T08:27:40;17.32;;;9.43;;
20229;SDS011;12195;55.790;37.572;2023-02-20T08:30:24;19.30;;;9.00;;
20229;SDS011;12195;55.790;37.572;2023-02-20T08:32:54;38.40;;;17.90;;
20229;SDS011;12195;55.790;37.572;2023-02-20T08:35:27;25.10;;;10.38;;
20229;SDS011;12195;55.790;37.572;2023-02-20T08:38:05;18.85;;;9.53;;
20229;SDS011;12195;55.790;37.572;2023-02-20T08:40:39;27.42;;;10.28;;
20229;SDS011;12195;55.790;37.572;2023-02-20T08:43:12;25.40;;;10.58;;
20229;SDS011;12195;55.790;37.572;2023-02-20T08:45:44;23.38;;;9.33;;
20229;SDS011;12195;55.790;37.572;2023-02-20T08:48:17;21.02;;;10.23;;
20229;SDS011;12195;55.790;37.572;2023-02-20T08:50:50;18.70;;;10.13;;
20229;SDS011;12195;55.790;37.572;2023-02-20T08:53:22;30.32;;;11.43;;
20229;SDS011;12195;55.790;37.572;2023-02-20T08:55:56;29.42;;;10.93;;
20229;SDS011;12195;55.790;37.572;2023-02-20T08:58:28;23.12;;;9.63;;
20229;SDS011;12195;55.790;37.572;2023-02-20T09:01:03;20.62;;;9.33;;
20229;SDS011;12195;55.790;37.572;2023-02-20T09:03:36;33.45;;;11.10;;
20229;SDS011;12195;55.790;37.572;2023-02-20T09:06:10;19.40;;;9.50;;
20229;SDS011;12195;55.790;37.572;2023-02-20T09:08:43;44.85;;;13.45;;
20229;SDS011;12195;55.790;37.572;2023-02-20T09:11:16;22.25;;;10.60;;
20229;SDS011;12195;55.790;37.572;2023-02-20T09:13:49;36.05;;;12.30;;
20229;SDS011;12195;55.790;37.572;2023-02-20T09:16:22;19.15;;;9.90;;
20229;SDS011;12195;55.790;37.572;2023-02-20T09:18:57;16.87;;;9.35;;
20229;SDS011;12195;55.790;37.572;2023-02-20T09:21:30;27.82;;;10.28;;
20229;SDS011;12195;55.790;37.572;2023-02-20T09:24:04;35.48;;;11.40;;
20229;SDS011;12195;55.790;37.572;2023-02-20T09:26:37;25.20;;;11.22;;
20229;SDS011;12195;55.790;37.572;2023-02-20T09:29:09;34.92;;;11.20;;
20229;SDS011;12195;55.790;37.572;2023-02-20T09:31:42;31.50;;;11.25;;
20229;SDS011;12195;55.790;37.572;2023-02-20T09:34:14;18.90;;;8.00;;
20229;SDS011;12195;55.790;37.572;2023-02-20T09:36:47;26.52;;;10.28;;
20229;SDS011;12195;55.790;37.572;2023-02-20T09:39:19;24.10;;;10.20;;
20229;SDS011;12195;55.790;37.572;2023-02-20T09:42:01;21.25;;;9.70;;
20229;SDS011;12195;55.790;37.572;2023-02-20T09:50:43;20.55;;;9.83;;
20229;SDS011;12195;55.790;37.572;2023-02-20T09:53:22;23.73;;;10.98;;
20229;SDS011;12195;55.790;37.572;2023-02-20T09:56:03;25.95;;;11.20;;
20229;SDS011;12195;55.790;37.572;2023-02-20T10:01:16;19.35;;;9.28;;
20229;SDS011;12195;55.790;37.572;2023-02-20T10:06:28;26.68;;;10.55;;
20229;SDS011;12195;55.790;37.572;2023-02-20T10:09:02;47.13;;;14.07;;
20229;SDS011;12195;55.790;37.572;2023-02-20T10:14:31;28.32;;;11.78;;
20229;SDS011;12195;55.790;37.572;2023-02-20T10:20:14;22.40;;;10.40;;
20229;SDS011;12195;55.790;37.572;2023-02-20T10:22:52;33.42;;;10.85;;
20229;SDS011;12195;55.790;37.572;2023-02-20T10:28:07;19.67;;;10.18;;
20229;SDS011;12195;55.790;37.572;2023-02-20T10:33:55;19.02;;;9.15;;
20229;SDS011;12195;55.790;37.572;2023-02-20T10:36:42;20.45;;;9.93;;
20229;SDS011;12195;55.790;37.572;2023-02-20T10:39:16;16.87;;;9.85;;
20229;SDS011;12195;55.790;37.572;2023-02-20T10:42:13;21.87;;;10.45;;
20229;SDS011;12195;55.790;37.572;2023-02-20T10:44:44;21.52;;;9.68;;
20229;SDS011;12195;55.790;37.572;2023-02-20T10:47:23;18.27;;;10.35;;
20229;SDS011;12195;55.790;37.572;2023-02-20T10:55:08;23.00;;;10.60;;
20229;SDS011;12195;55.790;37.572;2023-02-20T11:03:33;16.97;;;9.10;;
20229;SDS011;12195;55.790;37.572;2023-02-20T11:06:04;20.48;;;10.55;;
20229;SDS011;12195;55.790;37.572;2023-02-20T11:08:39;19.57;;;9.48;;
20229;SDS011;12195;55.790;37.572;2023-02-20T11:11:31;16.32;;;9.00;;
20229;SDS011;12195;55.790;37.572;2023-02-20T11:14:15;14.77;;;7.93;;
20229;SDS011;12195;55.790;37.572;2023-02-20T11:16:50;30.48;;;10.55;;
20229;SDS011;12195;55.790;37.572;2023-02-20T11:19:27;17.07;;;8.53;;
20229;SDS011;12195;55.790;37.572;2023-02-20T11:21:59;20.72;;;8.95;;
20229;SDS011;12195;55.790;37.572;2023-02-20T11:24:37;17.50;;;9.10;;
20229;SDS011;12195;55.790;37.572;2023-02-20T11:27:08;18.73;;;9.15;;
20229;SDS011;12195;55.790;37.572;2023-02-20T11:29:48;24.12;;;9.48;;
20229;SDS011;12195;55.790;37.572;2023-02-20T11:32:34;21.33;;;10.08;;
20229;SDS011;12195;55.790;37.572;2023-02-20T11:38:15;15.60;;;8.05;;
20229;SDS011;12195;55.790;37.572;2023-02-20T11:40:42;18.73;;;9.55;;
20229;SDS011;12195;55.790;37.572;2023-02-20T11:43:27;20.45;;;9.18;;
20229;SDS011;12195;55.790;37.572;2023-02-20T11:46:15;19.30;;;8.93;;
20229;SDS011;12195;55.790;37.572;2023-02-20T11:51:30;23.92;;;10.20;;
20229;SDS011;12195;55.790;37.572;2023-02-20T11:54:18;17.17;;;8.55;;
20229;SDS011;12195;55.790;37.572;2023-02-20T11:59:33;20.72;;;8.55;;
20229;SDS011;12195;55.790;37.572;2023-02-20T12:05:07;18.57;;;7.95;;
20229;SDS011;12195;55.790;37.572;2023-02-20T12:13:12;19.30;;;8.78;;
20229;SDS011;12195;55.790;37.572;2023-02-20T12:15:56;15.95;;;8.73;;
20229;SDS011;12195;55.790;37.572;2023-02-20T12:23:57;19.95;;;9.48;;
20229;SDS011;12195;55.790;37.572;2023-02-20T12:29:28;20.05;;;8.78;;
20229;SDS011;12195;55.790;37.572;2023-02-20T12:35:09;22.62;;;10.18;;
20229;SDS011;12195;55.790;37.572;2023-02-20T12:38:03;17.77;;;8.83;;
20229;SDS011;12195;55.790;37.572;2023-02-20T12:52:23;20.65;;;9.20;;
20229;SDS011;12195;55.790;37.572;2023-02-20T12:54:49;26.17;;;9.70;;
20229;SDS011;12195;55.790;37.572;2023-02-20T13:00:28;20.65;;;9.78;;
20229;SDS011;12195;55.790;37.572;2023-02-20T13:03:07;19.80;;;9.50;;
20229;SDS011;12195;55.790;37.572;2023-02-20T13:05:46;28.25;;;11.28;;
20229;SDS011;12195;55.790;37.572;2023-02-20T13:11:13;22.42;;;9.80;;
20229;SDS011;12195;55.790;37.572;2023-02-20T13:19:53;23.57;;;9.53;;
20229;SDS011;12195;55.790;37.572;2023-02-20T13:22:29;18.85;;;9.33;;
20229;SDS011;12195;55.790;37.572;2023-02-20T13:36:41;18.07;;;9.28;;
20229;SDS011;12195;55.790;37.572;2023-02-20T13:41:57;20.17;;;9.15;;
20229;SDS011;12195;55.790;37.572;2023-02-20T13:44:41;16.27;;;8.85;;
20229;SDS011;12195;55.790;37.572;2023-02-20T13:50:26;17.75;;;9.03;;
20229;SDS011;12195;55.790;37.572;2023-02-20T13:55:17;15.23;;;8.90;;
20229;SDS011;12195;55.790;37.572;2023-02-20T13:58:09;22.98;;;9.48;;
20229;SDS011;12195;55.790;37.572;2023-02-20T14:00:50;22.73;;;9.33;;
20229;SDS011;12195;55.790;37.572;2023-02-20T14:03:28;27.82;;;10.90;;
20229;SDS011;12195;55.790;37.572;2023-02-20T14:06:07;19.60;;;9.63;;
20229;SDS011;12195;55.790;37.572;2023-02-20T14:08:46;17.95;;;8.70;;
20229;SDS011;12195;55.790;37.572;2023-02-20T14:11:26;17.15;;;8.45;;
20229;SDS011;12195;55.790;37.572;2023-02-20T14:14:10;17.57;;;9.30;;
20229;SDS011;12195;55.790;37.572;2023-02-20T14:16:36;19.25;;;8.80;;
20229;SDS011;12195;55.790;37.572;2023-02-20T14:19:16;20.05;;;9.25;;
20229;SDS011;12195;55.790;37.572;2023-02-20T14:27:51;19.45;;;9.05;;
20229;SDS011;12195;55.790;37.572;2023-02-20T14:30:25;20.37;;;9.10;;
20229;SDS011;12195;55.790;37.572;2023-02-20T14:35:48;18.05;;;9.25;;
20229;SDS011;12195;55.790;37.572;2023-02-20T14:43:54;16.95;;;8.73;;
20229;SDS011;12195;55.790;37.572;2023-02-20T14:46:34;16.20;;;9.38;;
20229;SDS011;12195;55.790;37.572;2023-02-20T14:51:46;19.37;;;9.33;;
20229;SDS011;12195;55.790;37.572;2023-02-20T14:54:19;22.25;;;9.75;;
20229;SDS011;12195;55.790;37.572;2023-02-20T14:56:53;19.60;;;9.40;;
20229;SDS011;12195;55.790;37.572;2023-02-20T14:59:26;20.20;;;9.55;;
20229;SDS011;12195;55.790;37.572;2023-02-20T15:02:09;21.82;;;9.40;;
20229;SDS011;12195;55.790;37.572;2023-02-20T15:04:59;22.07;;;9.85;;
20229;SDS011;12195;55.790;37.572;2023-02-20T15:07:31;25.60;;;9.73;;
20229;SDS011;12195;55.790;37.572;2023-02-20T15:10:32;23.55;;;10.90;;
20229;SDS011;12195;55.790;37.572;2023-02-20T15:12:59;24.12;;;10.60;;
20229;SDS011;12195;55.790;37.572;2023-02-20T15:15:36;20.30;;;9.10;;
20229;SDS011;12195;55.790;37.572;2023-02-20T15:18:12;15.23;;;8.23;;
20229;SDS011;12195;55.790;37.572;2023-02-20T15:20:49;18.95;;;9.20;;
20229;SDS011;12195;55.790;37.572;2023-02-20T15:29:18;19.45;;;9.45;;
20229;SDS011;12195;55.790;37.572;2023-02-20T15:34:33;23.55;;;10.08;;
20229;SDS011;12195;55.790;37.572;2023-02-20T15:37:24;23.00;;;10.55;;
20229;SDS011;12195;55.790;37.572;2023-02-20T15:42:51;19.07;;;8.95;;
20229;SDS011;12195;55.790;37.572;2023-02-20T15:45:28;21.50;;;9.33;;
20229;SDS011;12195;55.790;37.572;2023-02-20T15:48:01;23.30;;;10.63;;
20229;SDS011;12195;55.790;37.572;2023-02-20T15:50:34;25.08;;;11.53;;
20229;SDS011;12195;55.790;37.572;2023-02-20T15:53:06;21.85;;;10.93;;
20229;SDS011;12195;55.790;37.572;2023-02-20T15:55:45;24.02;;;11.22;;
20229;SDS011;12195;55.790;37.572;2023-02-20T16:01:01;18.80;;;9.35;;
20229;SDS011;12195;55.790;37.572;2023-02-20T16:03:35;22.82;;;10.58;;
20229;SDS011;12195;55.790;37.572;2023-02-20T16:06:09;28.55;;;11.83;;
20229;SDS011;12195;55.790;37.572;2023-02-20T16:08:42;21.07;;;10.90;;
20229;SDS011;12195;55.790;37.572;2023-02-20T16:11:20;27.75;;;12.80;;
20229;SDS011;12195;55.790;37.572;2023-02-20T16:13:55;21.80;;;10.53;;
20229;SDS011;12195;55.790;37.572;2023-02-20T16:16:31;21.77;;;10.68;;
20229;SDS011;12195;55.790;37.572;2023-02-20T16:19:17;27.80;;;12.15;;
20229;SDS011;12195;55.790;37.572;2023-02-20T16:21:44;22.52;;;11.57;;
20229;SDS011;12195;55.790;37.572;2023-02-20T16:24:19;29.30;;;13.32;;
20229;SDS011;12195;55.790;37.572;2023-02-20T16:26:52;28.65;;;13.08;;
20229;SDS011;12195;55.790;37.572;2023-02-20T16:29:30;30.25;;;14.13;;
20229;SDS011;12195;55.790;37.572;2023-02-20T16:34:41;30.48;;;14.65;;
20229;SDS011;12195;55.790;37.572;2023-02-20T16:37:14;28.60;;;13.25;;
20229;SDS011;12195;55.790;37.572;2023-02-20T16:42:32;30.50;;;13.70;;
20229;SDS011;12195;55.790;37.572;2023-02-20T16:45:16;28.20;;;13.98;;
20229;SDS011;12195;55.790;37.572;2023-02-20T16:47:54;31.07;;;13.00;;
20229;SDS011;12195;55.790;37.572;2023-02-20T16:50:25;28.20;;;13.48;;
20229;SDS011;12195;55.790;37.572;2023-02-20T16:52:59;26.95;;;12.58;;
20229;SDS011;12195;55.790;37.572;2023-02-20T16:55:33;28.67;;;11.57;;
20229;SDS011;12195;55.790;37.572;2023-02-20T16:58:06;30.35;;;14.47;;
20229;SDS011;12195;55.790;37.572;2023-02-20T17:00:39;37.80;;;15.80;;
20229;SDS011;12195;55.790;37.572;2023-02-20T17:03:15;28.05;;;13.35;;
20229;SDS011;12195;55.790;37.572;2023-02-20T17:05:47;30.02;;;14.03;;
20229;SDS011;12195;55.790;37.572;2023-02-20T17:10:53;21.95;;;11.45;;
20229;SDS011;12195;55.790;37.572;2023-02-20T17:13:25;29.55;;;13.32;;
20229;SDS011;12195;55.790;37.572;2023-02-20T17:15:57;30.32;;;14.00;;
20229;SDS011;12195;55.790;37.572;2023-02-20T17:18:30;29.80;;;13.50;;
20229;SDS011;12195;55.790;37.572;2023-02-20T17:21:02;32.67;;;14.95;;
20229;SDS011;12195;55.790;37.572;2023-02-20T17:23:35;32.13;;;14.13;;
20229;SDS011;12195;55.790;37.572;2023-02-20T17:26:07;31.07;;;14.30;;
20229;SDS011;12195;55.790;37.572;2023-02-20T17:28:41;32.63;;;13.98;;
20229;SDS011;12195;55.790;37.572;2023-02-20T17:31:13;36.20;;;16.37;;
20229;SDS011;12195;55.790;37.572;2023-02-20T17:33:46;32.78;;;14.40;;
20229;SDS011;12195;55.790;37.572;2023-02-20T17:36:18;31.60;;;14.68;;
20229;SDS011;12195;55.790;37.572;2023-02-20T17:38:50;35.80;;;13.00;;
20229;SDS011;12195;55.790;37.572;2023-02-20T17:41:22;30.00;;;13.70;;
20229;SDS011;12195;55.790;37.572;2023-02-20T17:43:55;31.27;;;14.43;;
20229;SDS011;12195;55.790;37.572;2023-02-20T17:46:27;28.80;;;13.60;;
20229;SDS011;12195;55.790;37.572;2023-02-20T17:49:00;31.17;;;14.33;;
20229;SDS011;12195;55.790;37.572;2023-02-20T17:51:32;32.70;;;15.05;;
20229;SDS011;12195;55.790;37.572;2023-02-20T17:54:04;31.15;;;14.00;;
20229;SDS011;12195;55.790;37.572;2023-02-20T17:56:40;37.20;;;15.35;;